Main page
METAR-TAF:

METAR-TAF

Airports :

Kavala International Airport

Kavala, Greece

latitude: 40-59N, longitude: 024-36E, elevation: 5 m

Current weather observation

The report was made 38 minutes ago, at 16:20 UTC
Wind 3 kt from the Southwest
Temperature 30°C
Humidity 35%
Pressure 1009 hPa
Visibility 10 km or more
Few clouds at a height of 2500 ft

METAR: LGKV 151620Z 23003KT 9999 FEW025 30/13 Q1009

Time: 19:58 (16:58 UTC)

Forecast

The report was made 2 hours and 58 minutes ago, at 14:00 UTC
Forecast valid from 15 at 15 UTC to 15 at 24 UTC
Wind 12 kt from the South/Southeast
Visibility 10 km or more
Few clouds at a height of 2500 ft
Scattered clouds at a height of 9000 ft
Becoming
from 15 at 15 UTC to 15 at 17 UTC
Wind 12 kt from the Southwest
Becoming
from 15 at 19 UTC to 15 at 21 UTC
Wind 10 kt from the Northeast

TAF: LGKV 151400Z 1515/1524 16012KT 9999 FEW025 SCT090 BECMG 1515/1517 22012KT BECMG 1519/1521 04010KT

Weather observations and forecasts of more than 4000 airports (METAR and TAF reports).

The available stations are represented by yellow and red dots on the map.

Hover mouse over dot to see the name of the station.

Then click to see weather observations and forecasts.

To change the map : click on the green buttons with a black cross to zoom in, on the green button with a dash to zoom out, or on the green arrows for adjacent maps.


METAR-TAF: